Latest Weather Observations for Yamba

IDN60801

Issued at 12:33 pm EST Saturday 27 August 2016 (issued every 30 minutes, with the page automatically refreshed every 10 minutes)

About weather observations | Map of weather stations | Latest weather observations for NSW | Other Formats
Station Details ID: 058012 Name: YAMBA PILOT STATION Lat: -29.43 Lon: 153.36 Height: 27.4 m
Data from the previous 72 hours. | See also: Recent months at Yamba
Date/Time
EST
Temp
°C
App
Temp
°C
Dew
Point
°C
Rel
Hum
%
Delta-T
°C
Wind Press
QNH
hPa
Press
MSL
hPa
Rain since
9am
mm
Dir  Spd
km/h
Gust
km/h
Spd
kts
Gust
kts
27/12:30pm 18.8 14.2 9.8 56 4.8 SSE 24 39 13 21 1019.1 1019.0 0.0
27/12:00pm 18.2 12.9 9.8 58 4.4 SSE 28 44 15 24 1019.5 1019.4 0.0
27/11:30am 17.4 11.6 9.6 60 4.1 SSE 30 50 16 27 1019.8 1019.7 0.0
27/11:29am 17.7 12.3 9.6 59 4.3 SSE 28 50 15 27 1019.8 1019.7 0.0
27/11:00am 17.6 12.3 9.8 60 4.1 SSE 28 39 15 21 1019.8 1019.7 0.0
27/10:30am 17.0 13.4 8.4 57 4.4 SSW 17 35 9 19 1019.9 1019.8 0.0
27/10:00am 15.6 12.5 7.1 57 4.2 SSW 13 22 7 12 1019.8 1019.7 0.0
27/09:30am 14.7 11.3 5.8 55 4.2 SW 13 24 7 13 1020.0 1019.9 0.0
27/09:00am 13.7 10.6 5.6 58 3.8 WSW 11 20 6 11 1020.2 1020.1 0.0
27/08:30am 12.2 8.5 4.7 60 3.4 WSW 13 22 7 12 1020.1 1020.0 0.0
27/08:00am 11.4 8.2 5.3 66 2.8 WSW 11 19 6 10 1020.1 1020.0 0.0
27/07:30am 10.1 7.1 4.3 67 2.6 SW 9 20 5 11 1019.8 1019.7 0.0
27/07:00am 8.8 5.9 4.4 74 1.9 SW 9 17 5 9 1019.4 1019.3 0.0
27/06:30am 8.1 5.1 4.3 77 1.7 SW 9 17 5 9 1019.1 1019.0 0.0
27/06:00am 8.3 5.3 4.1 75 1.8 SW 9 17 5 9 1019.2 1019.1 0.0
27/05:30am 8.4 5.5 4.4 76 1.8 SW 9 15 5 8 1019.1 1019.0 0.0
27/05:00am 8.6 5.7 4.6 76 1.8 WSW 9 15 5 8 1018.6 1018.5 0.0
27/04:30am 8.9 6.0 4.9 76 1.8 WSW 9 17 5 9 1018.2 1018.1 0.0
27/04:00am 9.2 6.3 4.4 72 2.1 SW 9 13 5 7 1018.1 1018.0 0.0
27/03:30am 9.5 6.6 4.7 72 2.1 WSW 9 15 5 8 1018.1 1018.0 0.0
27/03:00am 10.1 7.3 5.1 71 2.3 WSW 9 13 5 7 1018.0 1017.9 0.0
27/02:30am 10.8 7.7 5.6 70 2.4 SW 11 17 6 9 1018.1 1018.0 0.0
27/02:00am 11.0 7.9 5.7 70 2.4 SW 11 17 6 9 1018.4 1018.3 0.0
27/01:30am 10.3 7.1 5.3 71 2.3 SW 11 19 6 10 1018.3 1018.2 0.0
27/01:00am 9.4 6.6 5.0 74 2.0 WSW 9 11 5 6 1018.4 1018.3 0.0
27/12:30am 9.7 7.1 5.9 77 1.7 W 9 15 5 8 1018.8 1018.7 0.0
27/12:00am 9.6 7.2 5.2 74 2.0 WSW 7 11 4 6 1018.2 1018.1 0.0
 
Date/Time
EST
Temp
°C
App
Temp
°C
Dew
Point
°C
Rel
Hum
%
Delta-T
°C
Wind Press
QNH
hPa
Press
MSL
hPa
Rain since
9am
mm
Dir  Spd
km/h
Gust
km/h
Spd
kts
Gust
kts
26/11:30pm 9.8 7.0 5.2 73 2.1 WSW 9 13 5 7 1017.9 1017.8 0.0
26/11:00pm 10.5 7.9 5.9 73 2.1 WSW 9 15 5 8 1017.9 1017.8 0.0
26/10:30pm 11.0 8.4 6.0 71 2.3 WSW 9 17 5 9 1017.5 1017.4 0.0
26/10:00pm 11.8 9.2 6.1 68 2.7 WSW 9 13 5 7 1017.6 1017.5 0.0
26/09:30pm 13.4 10.7 5.8 60 3.6 SSW 9 13 5 7 1017.5 1017.4 0.0
26/09:00pm 14.4 10.2 5.5 55 4.2 S 17 30 9 16 1017.6 1017.5 0.0
26/08:30pm 15.6 10.5 5.8 52 4.7 SSE 22 33 12 18 1017.4 1017.3 0.0
26/08:00pm 15.6 10.0 5.2 50 4.9 SSE 24 35 13 19 1017.6 1017.5 0.0
26/07:30pm 15.7 8.9 5.0 49 5.1 SE 30 39 16 21 1017.6 1017.5 0.0
26/07:00pm 15.6 10.3 6.9 56 4.3 SE 24 33 13 18 1017.4 1017.3 0.0
26/06:30pm 15.6 9.5 6.6 55 4.4 SE 28 37 15 20 1017.0 1016.9 0.0
26/06:00pm 15.5 10.1 6.5 55 4.4 SE 24 32 13 17 1016.8 1016.7 0.0
26/05:30pm 15.5 10.6 7.0 57 4.2 SE 22 30 12 16 1016.4 1016.3 0.0
26/05:00pm 15.6 10.4 7.1 57 4.2 SE 24 32 13 17 1016.1 1016.0 0.0
26/04:30pm 16.0 10.8 5.6 50 5.0 SE 22 28 12 15 1016.0 1015.9 0.0
26/04:00pm 16.3 11.7 6.7 53 4.7 SE 20 26 11 14 1015.6 1015.5 0.0
26/03:30pm 16.5 11.4 6.1 50 5.1 SE 22 30 12 16 1015.4 1015.3 0.0
26/03:00pm 16.5 11.5 6.3 51 5.0 SE 22 28 12 15 1015.2 1015.1 0.0
26/02:30pm 16.8 11.9 6.9 52 4.9 SE 22 30 12 16 1015.1 1015.0 0.0
26/02:00pm 16.7 11.8 6.8 52 4.9 SE 22 30 12 16 1015.2 1015.1 0.0
26/01:30pm 16.9 11.8 5.8 48 5.4 SE 22 28 12 15 1015.5 1015.4 0.0
26/01:00pm 16.9 11.8 6.1 49 5.3 SE 22 28 12 15 1015.7 1015.6 0.0
26/12:30pm 16.6 11.7 6.7 52 4.9 SE 22 28 12 15 1015.8 1015.7 0.0
26/12:00pm 16.7 11.9 4.4 44 5.8 SE 19 28 10 15 1016.3 1016.2 0.0
26/11:30am 17.2 14.1 3.8 41 6.3 SSE 9 13 5 7 1016.6 1016.5 0.0
26/11:00am 16.5 13.1 3.9 43 5.8 SSW 11 19 6 10 1017.0 1016.9 0.0
26/10:30am 16.1 13.0 5.7 50 5.0 SW 11 17 6 9 1017.3 1017.2 0.0
26/10:00am 15.3 11.5 4.1 47 5.2 WSW 13 20 7 11 1017.6 1017.5 0.0
26/09:30am 14.9 11.5 4.0 48 5.0 WSW 11 19 6 10 1017.7 1017.6 0.0
26/09:00am 14.0 9.9 4.3 52 4.4 WSW 15 26 8 14 1017.9 1017.8 0.0
26/08:30am 13.4 10.1 4.6 55 4.1 WSW 11 24 6 13 1017.9 1017.8 0.0
26/08:00am 12.4 9.2 4.9 60 3.4 WSW 11 22 6 12 1017.7 1017.6 0.0
26/07:30am 11.3 8.1 5.0 65 2.9 WSW 11 17 6 9 1017.4 1017.3 0.0
26/07:00am 10.2 7.4 5.2 71 2.3 WSW 9 15 5 8 1017.4 1017.3 0.0
26/06:30am 9.2 6.4 5.2 76 1.8 WSW 9 15 5 8 1016.9 1016.8 0.0
26/06:00am 8.9 6.1 5.3 78 1.6 WSW 9 17 5 9 1016.5 1016.4 0.0
26/05:30am 9.2 6.5 5.8 79 1.6 W 9 15 5 8 1016.2 1016.1 0.0
26/05:00am 9.3 6.4 4.9 74 2.0 WSW 9 15 5 8 1015.9 1015.8 0.0
26/04:30am 9.7 7.0 5.5 75 1.9 W 9 15 5 8 1015.8 1015.7 0.0
26/04:00am 10.3 7.7 4.2 66 2.7 WSW 7 11 4 6 1015.4 1015.3 0.0
26/03:30am 10.6 7.7 4.7 67 2.7 WSW 9 15 5 8 1015.0 1014.9 0.0
26/03:00am 10.2 7.5 5.4 72 2.2 W 9 13 5 7 1014.9 1014.8 0.0
26/02:30am 10.4 7.0 6.0 74 2.0 W 13 17 7 9 1014.8 1014.7 0.0
26/02:00am 10.7 7.8 6.3 74 2.1 W 11 15 6 8 1014.8 1014.7 0.0
26/01:30am 11.0 7.8 5.3 68 2.6 W 11 15 6 8 1014.8 1014.7 0.0
26/01:00am 11.1 8.4 5.4 68 2.6 W 9 13 5 7 1014.7 1014.6 0.0
26/12:30am 11.6 8.5 5.7 67 2.7 W 11 15 6 8 1014.6 1014.5 0.0
26/12:00am 11.9 9.1 5.3 64 3.0 W 9 13 5 7 1014.6 1014.5 0.0
 
Date/Time
EST
Temp
°C
App
Temp
°C
Dew
Point
°C
Rel
Hum
%
Delta-T
°C
Wind Press
QNH
hPa
Press
MSL
hPa
Rain since
9am
mm
Dir  Spd
km/h
Gust
km/h
Spd
kts
Gust
kts
25/11:30pm 12.6 9.8 5.1 60 3.5 WSW 9 15 5 8 1014.7 1014.6 0.0
25/11:00pm 13.0 10.1 4.4 56 3.9 WSW 9 15 5 8 1014.8 1014.7 0.0
25/10:30pm 13.2 10.3 4.6 56 4.0 WSW 9 17 5 9 1014.8 1014.7 0.0
25/10:00pm 13.5 10.6 4.6 55 4.1 SW 9 17 5 9 1014.7 1014.6 0.0
25/09:30pm 13.2 10.5 5.4 59 3.6 WSW 9 15 5 8 1014.7 1014.6 0.0
25/09:00pm 13.5 10.9 6.1 61 3.5 W 9 13 5 7 1014.3 1014.2 0.0
25/08:30pm 14.1 11.8 5.5 56 4.1 WSW 7 15 4 8 1014.0 1013.9 0.0
25/08:00pm 15.0 12.3 5.5 53 4.5 SW 9 20 5 11 1013.8 1013.7 0.0
25/07:30pm 15.4 13.0 7.2 58 4.0 SW 9 15 5 8 1013.7 1013.6 0.0
25/07:00pm 15.7 13.4 8.9 64 3.5 SSW 11 19 6 10 1013.1 1013.0 0.0
25/06:30pm 16.8 14.8 8.8 59 4.1 S 9 15 5 8 1012.3 1012.3 0.0
25/06:00pm 17.4 14.7 9.1 58 4.3 SSE 13 20 7 11 1011.9 1011.9 0.0
25/05:30pm 17.9 14.8 9.0 56 4.6 SSE 15 20 8 11 1011.2 1011.2 0.0
25/05:00pm 17.9 15.7 7.9 52 5.1 WSW 9 15 5 8 1010.6 1010.6 0.0
25/04:30pm 18.0 15.1 6.5 47 5.7 WNW 11 17 6 9 1010.1 1010.1 0.0
25/04:00pm 20.0 16.5 5.6 39 7.1 W 13 19 7 10 1009.7 1009.7 0.0
25/03:30pm 20.5 17.8 7.5 43 6.7 WNW 11 20 6 11 1009.3 1009.3 0.0
25/03:00pm 20.1 16.7 6.1 40 7.0 W 13 24 7 13 1009.2 1009.2 0.0
25/02:30pm 19.9 16.1 5.9 40 6.9 W 15 30 8 16 1008.9 1008.9 0.0
25/02:00pm 19.5 15.9 4.8 38 7.1 WSW 13 22 7 12 1008.8 1008.8 0.0
25/01:30pm 19.6 15.8 6.0 41 6.8 W 15 22 8 12 1008.8 1008.8 0.0
25/01:00pm 19.0 15.2 5.8 42 6.5 W 15 26 8 14 1008.9 1008.9 0.0
25/12:30pm 19.3 16.6 7.4 46 6.1 WSW 11 22 6 12 1009.2 1009.2 0.0
25/12:00pm 18.6 14.5 6.1 44 6.2 W 17 32 9 17 1009.5 1009.5 0.0
25/11:30am 18.0 14.2 5.6 44 6.0 W 15 24 8 13 1009.6 1009.6 0.0
25/11:00am 17.6 13.1 6.8 49 5.4 W 20 32 11 17 1009.7 1009.7 0.0
25/10:30am 17.8 13.5 7.0 49 5.4 WNW 19 30 10 16 1009.9 1009.9 0.0
25/10:00am 17.1 13.6 7.2 52 5.0 W 15 26 8 14 1010.0 1010.0 0.0
25/09:30am 16.6 12.7 7.3 54 4.6 W 17 26 9 14 1009.8 1009.8 0.0
25/09:00am 16.0 12.2 7.7 58 4.2 W 17 26 9 14 1009.8 1009.8 18.4
25/08:30am 15.5 12.5 9.2 66 3.2 WNW 15 24 8 13 1009.6 1009.6 18.4
25/08:00am 14.8 13.4 12.1 84 1.5 WNW 11 19 6 10 1009.3 1009.3 18.4
25/07:30am 13.8 13.0 12.9 94 0.5 NNW 9 15 5 8 1009.1 1009.1 18.4
25/07:00am 12.4 11.7 11.9 97 0.3 NW 7 13 4 7 1008.3 1008.3 18.4
25/06:30am 11.9 10.6 11.4 97 0.3 NNW 9 11 5 6 1008.1 1008.1 18.4
25/06:00am 12.6 11.5 12.1 97 0.3 NNW 9 11 5 6 1007.4 1007.4 18.4
25/05:30am 13.0 12.6 12.4 96 0.3 WNW 6 7 3 4 1007.2 1007.2 18.4
25/05:00am 13.2 11.5 11.3 88 1.0 W 11 13 6 7 1006.2 1006.2 18.4
25/04:30am 13.8 12.6 11.7 87 1.1 WSW 9 13 5 7 1006.0 1006.0 18.4
25/04:00am 13.6 11.2 12.5 93 0.6 WNW 17 26 9 14 1006.3 1006.3 18.4
25/03:30am 13.7 12.3 13.4 98 0.2 W 13 20 7 11 1004.9 1004.9 18.4
25/03:00am 13.9 13.3 13.6 98 0.2 WSW 9 19 5 10 1004.2 1004.2 18.2
25/02:30am 14.1 13.2 13.8 98 0.2 WSW 11 17 6 9 1003.9 1003.9 18.2
25/02:00am 14.5 13.0 14.2 98 0.2 WNW 15 24 8 13 1004.8 1004.8 18.2
25/01:30am 14.5 13.4 14.2 98 0.2 WNW 13 24 7 13 1005.3 1005.3 18.2
25/01:00am 14.5 13.4 14.2 98 0.2 NW 13 19 7 10 1005.5 1005.5 18.2
25/12:30am 14.4 13.6 14.1 98 0.2 WNW 11 17 6 9 1006.0 1006.0 18.2
25/12:00am 14.4 14.0 14.1 98 0.2 NNW 9 13 5 7 1005.3 1005.3 18.2
 
Date/Time
EST
Temp
°C
App
Temp
°C
Dew
Point
°C
Rel
Hum
%
Delta-T
°C
Wind Press
QNH
hPa
Press
MSL
hPa
Rain since
9am
mm
Dir  Spd
km/h
Gust
km/h
Spd
kts
Gust
kts
24/11:30pm 14.6 14.3 14.3 98 0.2 NW 9 13 5 7 1004.8 1004.8 18.2
24/11:00pm 14.6 14.3 14.3 98 0.2 NNW 9 13 5 7 1005.0 1005.0 18.2
24/10:30pm 14.7 13.6 14.4 98 0.2 NW 13 17 7 9 1005.7 1005.7 18.2
24/10:00pm 14.6 14.3 14.3 98 0.2 NW 9 13 5 7 1005.8 1005.8 18.2
24/09:30pm 14.7 13.6 14.4 98 0.2 NNW 13 17 7 9 1006.2 1006.2 18.2
24/09:00pm 14.6 14.8 14.3 98 0.2 NNW 6 9 3 5 1005.8 1005.8 18.2
24/08:30pm 15.0 15.2 14.7 98 0.2 NW 7 11 4 6 1006.1 1006.1 18.2
24/08:00pm 15.2 14.7 14.9 98 0.2 W 11 13 6 7 1007.3 1007.3 18.2
24/07:30pm 15.0 14.8 14.7 98 0.2 WSW 9 11 5 6 1006.6 1006.6 18.2
24/07:17pm 15.0 14.8 14.7 98 0.2 WSW 9 17 5 9 1006.0 1006.0 18.2
24/07:00pm 15.1 14.2 14.8 98 0.2 WNW 13 19 7 10 1008.0 1008.0 18.2
24/06:30pm 15.1 14.9 14.8 98 0.2 WNW 9 15 5 8 1006.3 1006.3 18.2
24/06:00pm 15.2 14.7 14.9 98 0.2 W 11 17 6 9 1006.4 1006.4 18.2
24/05:30pm 15.4 15.0 15.1 98 0.2 W 11 15 6 8 1006.9 1006.9 18.0
24/05:00pm 15.4 15.9 15.1 98 0.2 WSW 6 11 3 6 1006.0 1006.0 18.0
24/04:30pm 15.4 14.6 15.1 98 0.2 W 13 20 7 11 1006.7 1006.7 18.0
24/04:00pm 15.7 16.1 15.4 98 0.2 NW 7 9 4 5 1006.1 1006.1 17.8
24/03:30pm 15.7 15.8 15.4 98 0.2 SW 9 15 5 8 1006.7 1006.7 17.8
24/03:00pm 15.4 15.0 15.1 98 0.2 E 11 17 6 9 1004.8 1004.8 17.6
24/02:49pm 15.4 15.7 15.1 98 0.2 ESE 7 11 4 6 1005.4 1005.4 17.6
24/02:30pm 15.3 15.2 15.0 98 0.2 WSW 9 17 5 9 1007.4 1007.4 17.0
24/02:00pm 15.1 15.3 14.8 98 0.2 SW 7 13 4 7 1007.7 1007.7 15.2
24/01:30pm 15.3 15.6 15.0 98 0.2 WSW 7 17 4 9 1007.7 1007.7 13.4
24/01:00pm 15.2 15.1 14.9 98 0.2 SW 9 17 5 9 1007.7 1007.7 11.4

Other Formats:

Comma delimited format used in spreadsheet applications
http://www.bom.gov.au/fwo/IDN60801/IDN60801.94589.axf

JavaScript Object Notation format (JSON) in row-major order
http://www.bom.gov.au/fwo/IDN60801/IDN60801.94589.json